createdAt,value
2022-08-28T00:00:58.930Z,102110.44
2022-08-28T00:03:30.397Z,102110.97
2022-08-28T00:05:57.469Z,102103.09
2022-08-28T00:08:27.231Z,102070.38
2022-08-28T00:10:57.331Z,102019.13
2022-08-28T00:13:25.342Z,102106.09
2022-08-28T00:15:55.238Z,102068.50
2022-08-28T00:18:24.793Z,102034.97
2022-08-28T00:20:53.483Z,102094.38
2022-08-28T00:23:21.176Z,102105.00
2022-08-28T00:25:48.262Z,102111.56
2022-08-28T00:28:23.769Z,102109.09
2022-08-28T00:30:53.602Z,102117.00
2022-08-28T00:33:24.556Z,102119.75
2022-08-28T00:35:54.108Z,101959.16
2022-08-28T00:38:23.322Z,102004.09
2022-08-28T00:40:56.153Z,102028.69
2022-08-28T00:43:33.192Z,101925.91
2022-08-28T00:46:00.208Z,101923.97
2022-08-28T00:48:27.248Z,102085.94
2022-08-28T00:51:00.601Z,101942.78
2022-08-28T00:53:30.034Z,102085.94
2022-08-28T00:56:01.600Z,102049.38
2022-08-28T00:58:34.127Z,102089.47
2022-08-28T01:01:01.584Z,102081.56
2022-08-28T01:03:28.699Z,101979.56
2022-08-28T01:05:57.676Z,102013.34
2022-08-28T01:08:24.505Z,102003.84
2022-08-28T01:11:01.153Z,102010.91
2022-08-28T01:13:28.588Z,102088.09
2022-08-28T01:15:56.104Z,102027.25
2022-08-28T01:18:23.583Z,102083.47
2022-08-28T01:20:58.952Z,102071.19
2022-08-28T01:23:41.510Z,102055.94
2022-08-28T01:26:11.896Z,101995.91
2022-08-28T01:28:39.042Z,101984.44
2022-08-28T01:31:06.215Z,102068.19
2022-08-28T01:33:33.037Z,102088.09
2022-08-28T01:35:59.870Z,102036.53
2022-08-28T01:38:28.306Z,102019.88
2022-08-28T01:40:57.297Z,102003.25
2022-08-28T01:43:26.234Z,102018.78
2022-08-28T01:45:56.395Z,102030.25
2022-08-28T01:48:26.413Z,102062.69
2022-08-28T01:50:53.466Z,102090.28
2022-08-28T01:53:24.750Z,102098.47
2022-08-28T01:55:53.247Z,102095.16
2022-08-28T01:58:22.029Z,102036.22
2022-08-28T02:00:49.312Z,102020.69
2022-08-28T02:03:16.242Z,102018.25
2022-08-28T02:05:43.133Z,102014.94
2022-08-28T02:08:10.635Z,101992.03
2022-08-28T02:10:39.805Z,102044.09
2022-08-28T02:13:07.913Z,102098.09
2022-08-28T02:15:37.494Z,102032.88
2022-08-28T02:18:05.343Z,102020.03
2022-08-28T02:20:33.405Z,102081.44
2022-08-28T02:23:00.536Z,102093.97
2022-08-28T02:25:28.668Z,101994.66
2022-08-28T02:27:56.632Z,102011.03
2022-08-28T02:30:23.831Z,102048.63
2022-08-28T02:32:52.399Z,102013.47
2022-08-28T02:35:20.557Z,102104.28
2022-08-28T02:37:47.870Z,101982.91
2022-08-28T02:40:17.085Z,102079.75
2022-08-28T02:42:44.231Z,102059.84
2022-08-28T02:45:12.550Z,102076.19
2022-08-28T02:47:40.081Z,102073.97
2022-08-28T02:50:10.930Z,101947.09
2022-08-28T02:52:38.178Z,102046.41
2022-08-28T02:55:06.486Z,101962.31
2022-08-28T02:57:33.458Z,102069.31
2022-08-28T03:00:00.354Z,102009.22
2022-08-28T03:02:27.264Z,101928.97
2022-08-28T03:04:54.135Z,101948.13
2022-08-28T03:07:22.393Z,102000.75
2022-08-28T03:09:50.383Z,102093.28
2022-08-28T03:12:17.218Z,102082.28
2022-08-28T03:14:44.025Z,102061.44
2022-08-28T03:17:10.835Z,101945.69
2022-08-28T03:19:37.619Z,102104.56
2022-08-28T03:22:04.675Z,102067.38
2022-08-28T03:24:32.922Z,102114.03
2022-08-28T03:26:59.610Z,102102.22
2022-08-28T03:29:26.472Z,102109.31
2022-08-28T03:31:53.292Z,102118.81
2022-08-28T03:34:20.128Z,102115.28
2022-08-28T03:36:47.138Z,102004.38
2022-08-28T03:39:14.011Z,101978.19
2022-08-28T03:41:42.114Z,102118.47
2022-08-28T03:44:09.003Z,102080.88
2022-08-28T03:46:36.357Z,102096.72
2022-08-28T03:49:04.664Z,101999.16
2022-08-28T03:51:33.856Z,102085.28
2022-08-28T03:54:02.200Z,102120.53
2022-08-28T03:56:30.573Z,102120.53
2022-08-28T03:59:00.877Z,102114.25
2022-08-28T04:01:28.007Z,102114.75
2022-08-28T04:03:55.114Z,102034.97
2022-08-28T04:06:22.132Z,102041.00
2022-08-28T04:08:48.905Z,102133.31
2022-08-28T04:11:15.705Z,102111.94
2022-08-28T04:13:42.491Z,102067.16
2022-08-28T04:16:14.163Z,102099.16
2022-08-28T04:18:42.625Z,102019.63
2022-08-28T04:21:12.139Z,102092.81
2022-08-28T04:23:40.287Z,102133.31
2022-08-28T04:26:08.366Z,102138.13
2022-08-28T04:28:35.587Z,102088.97
2022-08-28T04:31:03.086Z,102092.72
2022-08-28T04:33:31.475Z,102014.22
2022-08-28T04:36:02.232Z,102036.06
2022-08-28T04:38:28.980Z,102018.88
2022-08-28T04:40:55.987Z,102043.41
2022-08-28T04:43:25.746Z,101958.63
2022-08-28T04:45:52.539Z,102008.19
2022-08-28T04:48:19.465Z,102149.25
2022-08-28T04:50:49.253Z,102056.78
2022-08-28T04:53:18.627Z,102159.00
2022-08-28T04:55:54.210Z,102159.53
2022-08-28T04:58:24.078Z,102010.22
2022-08-28T05:00:52.361Z,102158.38
2022-08-28T05:03:25.137Z,102044.16
2022-08-28T05:05:54.428Z,102107.63
2022-08-28T05:08:23.224Z,102148.56
2022-08-28T05:10:50.463Z,102170.41
2022-08-28T05:13:17.875Z,102104.22
2022-08-28T05:15:47.646Z,102153.44
2022-08-28T05:18:15.605Z,102159.44
2022-08-28T05:20:44.933Z,102171.47
2022-08-28T05:23:14.078Z,102147.69
2022-08-28T05:25:42.981Z,102076.97
2022-08-28T05:28:12.557Z,102051.88
2022-08-28T05:30:41.349Z,102168.94
2022-08-28T05:33:09.545Z,102101.97
2022-08-28T05:35:37.656Z,102162.53
2022-08-28T05:38:04.534Z,102118.28
2022-08-28T05:40:33.074Z,102169.63
2022-08-28T05:43:00.094Z,102132.09
2022-08-28T05:45:26.784Z,102128.31
2022-08-28T05:47:53.489Z,102097.19
2022-08-28T05:50:20.405Z,102144.31
2022-08-28T05:52:47.143Z,102136.50
2022-08-28T05:55:13.959Z,102051.69
2022-08-28T05:57:42.121Z,102172.97
2022-08-28T06:00:10.377Z,102163.19
2022-08-28T06:02:37.098Z,102160.47
2022-08-28T06:05:04.335Z,102166.78
2022-08-28T06:07:31.036Z,102163.56
2022-08-28T06:09:57.723Z,102018.16
2022-08-28T06:12:24.476Z,102124.56
2022-08-28T06:14:52.733Z,102047.91
2022-08-28T06:17:23.686Z,102164.44
2022-08-28T06:19:50.646Z,102137.72
2022-08-28T06:22:17.330Z,102109.91
2022-08-28T06:24:44.048Z,102173.47
2022-08-28T06:27:10.941Z,102162.56
2022-08-28T06:29:37.753Z,102187.94
2022-08-28T06:32:06.045Z,102186.84
2022-08-28T06:34:32.847Z,102136.09
2022-08-28T06:36:59.577Z,102189.84
2022-08-28T06:39:26.381Z,102190.09
2022-08-28T06:41:53.160Z,102195.03
2022-08-28T06:44:21.167Z,102166.34
2022-08-28T06:46:49.472Z,102119.72
2022-08-28T06:49:18.281Z,102187.38
2022-08-28T06:51:44.975Z,102140.47
2022-08-28T06:54:11.794Z,102192.28
2022-08-28T06:56:38.854Z,102154.88
2022-08-28T06:59:05.703Z,102159.53
2022-08-28T07:01:34.928Z,102101.44
2022-08-28T07:04:06.783Z,102191.91
2022-08-28T07:06:53.030Z,102043.09
2022-08-28T07:09:21.538Z,102194.59
2022-08-28T07:11:48.229Z,102123.44
2022-08-28T07:14:14.958Z,102097.56
2022-08-28T07:16:42.149Z,102171.63
2022-08-28T07:19:15.097Z,102193.34
2022-08-28T07:21:45.787Z,102186.44
2022-08-28T07:24:14.391Z,102192.09
2022-08-28T07:26:42.263Z,102193.97
2022-08-28T07:29:11.424Z,102155.50
2022-08-28T07:31:40.645Z,102199.19
2022-08-28T07:34:08.517Z,102136.31
2022-08-28T07:36:35.464Z,102098.94
2022-08-28T07:39:04.393Z,102141.69
2022-08-28T07:41:33.150Z,102174.56
2022-08-28T07:44:00.082Z,102182.25
2022-08-28T07:46:27.153Z,102088.03
2022-08-28T07:48:53.872Z,102155.03
2022-08-28T07:51:20.855Z,102180.84
2022-08-28T07:53:47.652Z,102204.28
2022-08-28T07:56:15.719Z,102225.25
2022-08-28T07:58:42.651Z,102181.53
2022-08-28T08:01:09.423Z,102150.72
2022-08-28T08:03:36.183Z,102201.94
2022-08-28T08:06:05.136Z,102194.84
2022-08-28T08:08:33.729Z,102134.94
2022-08-28T08:11:04.254Z,102201.50
2022-08-28T08:13:37.052Z,102229.53
2022-08-28T08:16:07.614Z,102188.03
2022-08-28T08:18:34.556Z,102235.28
2022-08-28T08:21:05.660Z,102238.22
2022-08-28T08:23:32.611Z,102248.03
2022-08-28T08:26:01.494Z,102199.25
2022-08-28T08:28:28.476Z,102255.38
2022-08-28T08:31:09.117Z,102240.69
2022-08-28T08:33:38.095Z,102165.03
2022-08-28T08:36:05.380Z,102204.78
2022-08-28T08:38:33.662Z,102250.69
2022-08-28T08:41:02.581Z,102214.81
2022-08-28T08:43:31.591Z,102236.81
2022-08-28T08:45:58.756Z,102231.44
2022-08-28T08:48:32.173Z,102181.34
2022-08-28T08:51:04.652Z,102172.13
2022-08-28T08:53:43.888Z,102238.56
2022-08-28T08:56:14.498Z,102151.88
2022-08-28T08:58:43.629Z,102181.22
2022-08-28T09:01:17.613Z,102252.47
2022-08-28T09:03:54.013Z,102232.03
2022-08-28T09:06:30.031Z,102251.88
2022-08-28T09:08:59.827Z,102187.72
2022-08-28T09:11:36.705Z,102266.09
2022-08-28T09:14:12.187Z,102248.34
2022-08-28T09:16:43.219Z,102249.06
2022-08-28T09:19:15.371Z,102158.06
2022-08-28T09:21:44.679Z,102202.53
2022-08-28T09:24:19.513Z,102199.84
2022-08-28T09:26:53.149Z,102257.22
2022-08-28T09:29:28.607Z,102235.13
2022-08-28T09:31:55.943Z,102255.44
2022-08-28T09:34:28.758Z,102261.06
2022-08-28T09:36:57.333Z,102236.31
2022-08-28T09:39:26.789Z,102198.44
2022-08-28T09:42:01.707Z,102235.75
2022-08-28T09:44:28.514Z,102262.38
2022-08-28T09:46:55.188Z,102268.31
2022-08-28T09:49:26.853Z,102184.28
2022-08-28T09:51:54.406Z,102173.28
2022-08-28T09:54:29.145Z,102254.06
2022-08-28T09:56:56.545Z,102274.91
2022-08-28T09:59:26.470Z,102249.66
2022-08-28T10:02:20.673Z,102271.66
2022-08-28T10:04:58.728Z,102231.19
2022-08-28T10:07:34.947Z,102268.81
2022-08-28T10:10:15.248Z,102268.34
2022-08-28T10:12:57.417Z,102268.34
2022-08-28T10:15:32.602Z,102262.28
2022-08-28T10:18:17.127Z,102244.22
2022-08-28T10:20:55.125Z,102210.41
2022-08-28T10:23:29.730Z,102263.31
2022-08-28T10:26:08.079Z,102253.78
2022-08-28T10:28:44.732Z,102254.94
2022-08-28T10:31:20.317Z,102263.56
2022-08-28T10:34:08.395Z,102246.66
2022-08-28T10:36:36.734Z,102259.13
2022-08-28T10:39:25.620Z,102256.81
2022-08-28T10:41:57.262Z,102244.19
2022-08-28T10:44:29.904Z,102250.75
2022-08-28T10:46:58.702Z,102269.06
2022-08-28T10:49:31.989Z,102243.50
2022-08-28T10:52:06.641Z,102239.88
2022-08-28T10:54:44.659Z,102247.69
2022-08-28T10:57:29.623Z,102242.78
2022-08-28T10:59:58.222Z,102267.81
2022-08-28T11:02:26.995Z,102263.72
2022-08-28T11:04:58.468Z,102258.56
2022-08-28T11:07:33.906Z,102211.34
2022-08-28T11:10:18.652Z,102255.34
2022-08-28T11:12:45.567Z,102257.66
2022-08-28T11:15:41.399Z,102251.75
2022-08-28T11:18:55.170Z,102164.31
2022-08-28T11:21:27.731Z,102140.97
2022-08-28T11:24:15.195Z,102262.19
2022-08-28T11:26:59.096Z,102199.88
2022-08-28T11:29:46.604Z,102261.25
2022-08-28T11:33:01.136Z,102223.69
2022-08-28T11:35:51.061Z,102275.41
2022-08-28T11:38:54.007Z,102253.66
2022-08-28T11:41:24.441Z,102254.53
2022-08-28T11:44:12.249Z,102275.13
2022-08-28T11:46:41.600Z,102222.22
2022-08-28T11:49:40.461Z,102274.50
2022-08-28T11:52:20.023Z,102222.78
2022-08-28T11:54:55.541Z,102266.19
2022-08-28T11:57:28.862Z,102221.47
2022-08-28T12:00:10.167Z,102246.53
2022-08-28T12:02:59.137Z,102266.53
2022-08-28T12:05:50.492Z,102257.38
2022-08-28T12:09:08.216Z,102275.78
2022-08-28T12:12:00.561Z,102243.31
2022-08-28T12:15:04.247Z,102265.50
2022-08-28T12:17:55.641Z,102253.56
2022-08-28T12:20:41.244Z,102252.44
2022-08-28T12:23:44.762Z,102251.22
2022-08-28T12:26:24.329Z,102266.59
2022-08-28T12:28:57.559Z,102270.78
2022-08-28T12:32:01.511Z,102271.91
2022-08-28T12:34:40.616Z,102282.09
2022-08-28T12:37:24.599Z,102245.16
2022-08-28T12:39:53.475Z,102277.16
2022-08-28T12:42:24.176Z,102241.00
2022-08-28T12:44:50.987Z,102260.63
2022-08-28T12:47:20.371Z,102253.31
2022-08-28T12:49:48.606Z,102273.47
2022-08-28T12:52:18.606Z,102287.00
2022-08-28T12:54:46.514Z,102269.78
2022-08-28T12:57:15.236Z,102255.13
2022-08-28T12:59:44.151Z,102276.97
2022-08-28T13:02:19.271Z,102280.69
2022-08-28T13:04:55.563Z,102247.00
2022-08-28T13:07:27.555Z,102235.13
2022-08-28T13:09:57.230Z,102272.50
2022-08-28T13:12:56.243Z,102295.84
2022-08-28T13:15:57.686Z,102281.34
2022-08-28T13:18:38.205Z,102289.19
2022-08-28T13:21:32.720Z,102262.03
2022-08-28T13:24:38.753Z,102284.34
2022-08-28T13:27:15.853Z,102278.84
2022-08-28T13:29:55.668Z,102239.03
2022-08-28T13:32:26.093Z,102270.56
2022-08-28T13:35:40.341Z,102266.63
2022-08-28T13:38:10.709Z,102259.47
2022-08-28T13:40:57.577Z,102247.22
2022-08-28T13:43:27.287Z,102240.75
2022-08-28T13:45:54.050Z,102241.28
2022-08-28T13:48:23.581Z,102252.53
2022-08-28T13:50:54.967Z,102232.84
2022-08-28T13:53:22.750Z,102243.09
2022-08-28T13:55:50.931Z,102224.22
2022-08-28T13:58:17.982Z,102219.88
2022-08-28T14:00:46.816Z,102266.81
2022-08-28T14:03:13.902Z,102264.53
2022-08-28T14:05:40.949Z,102257.22
2022-08-28T14:08:09.058Z,102266.78
2022-08-28T14:10:35.783Z,102261.59
2022-08-28T14:13:02.655Z,102263.50
2022-08-28T14:15:29.610Z,102194.41
2022-08-28T14:17:56.360Z,102253.28
2022-08-28T14:20:23.238Z,102268.88
2022-08-28T14:22:50.769Z,102225.06
2022-08-28T14:25:20.292Z,102269.28
2022-08-28T14:27:47.318Z,102268.09
2022-08-28T14:30:18.761Z,102277.34
2022-08-28T14:32:45.511Z,102242.03
2022-08-28T14:35:12.528Z,102239.59
2022-08-28T14:37:41.340Z,102127.03
2022-08-28T14:40:09.380Z,102202.47
2022-08-28T14:42:37.912Z,102275.38
2022-08-28T14:45:05.778Z,102129.22
2022-08-28T14:47:38.324Z,102263.34
2022-08-28T14:50:06.118Z,102251.06
2022-08-28T14:52:33.016Z,102273.34
2022-08-28T14:54:59.731Z,102273.34
2022-08-28T14:57:26.475Z,102245.00
2022-08-28T14:59:54.553Z,102242.19
2022-08-28T15:02:21.321Z,102267.34
2022-08-28T15:04:48.401Z,102230.56
2022-08-28T15:07:22.937Z,102270.06
2022-08-28T15:09:49.977Z,102230.94
2022-08-28T15:12:25.976Z,102251.69
2022-08-28T15:14:55.302Z,102259.47
2022-08-28T15:17:34.354Z,102279.56
2022-08-28T15:20:04.007Z,102242.41
2022-08-28T15:22:30.852Z,102251.97
2022-08-28T15:24:57.578Z,102264.94
2022-08-28T15:27:24.463Z,102281.03
2022-08-28T15:29:51.139Z,102262.59
2022-08-28T15:32:22.370Z,102235.63
2022-08-28T15:34:51.104Z,102286.28
2022-08-28T15:37:23.762Z,102190.72
2022-08-28T15:39:50.489Z,102277.22
2022-08-28T15:42:17.232Z,102281.09
2022-08-28T15:44:45.609Z,102142.78
2022-08-28T15:47:18.305Z,102301.38
2022-08-28T15:49:57.513Z,102295.75
2022-08-28T15:52:43.076Z,102107.88
2022-08-28T15:55:13.073Z,102259.22
2022-08-28T15:57:41.945Z,102253.34
2022-08-28T16:00:10.530Z,102280.75
2022-08-28T16:02:37.536Z,102268.94
2022-08-28T16:05:06.375Z,102196.09
2022-08-28T16:07:33.469Z,102247.22
2022-08-28T16:10:04.245Z,102286.91
2022-08-28T16:12:31.028Z,102177.34
2022-08-28T16:14:58.043Z,102291.44
2022-08-28T16:17:25.044Z,102238.53
2022-08-28T16:19:52.702Z,102199.63
2022-08-28T16:22:23.003Z,102225.00
2022-08-28T16:24:50.239Z,102200.56
2022-08-28T16:27:17.252Z,102163.81
2022-08-28T16:29:46.585Z,102206.44
2022-08-28T16:32:16.676Z,102156.06
2022-08-28T16:34:44.688Z,102113.72
2022-08-28T16:37:19.440Z,102257.19
2022-08-28T16:39:53.532Z,102186.75
2022-08-28T16:42:20.543Z,102142.63
2022-08-28T16:44:47.789Z,102165.63
2022-08-28T16:47:17.602Z,102226.22
2022-08-28T16:49:44.310Z,102230.28
2022-08-28T16:52:11.130Z,102216.47
2022-08-28T16:54:38.088Z,102236.22
2022-08-28T16:57:15.914Z,102224.59
2022-08-28T16:59:43.764Z,102171.91
2022-08-28T17:02:13.273Z,102271.97
2022-08-28T17:04:40.712Z,102162.72
2022-08-28T17:07:07.582Z,102112.63
2022-08-28T17:09:34.464Z,102171.28
2022-08-28T17:12:01.341Z,102106.38
2022-08-28T17:14:32.325Z,102272.41
2022-08-28T17:16:59.177Z,102269.75
2022-08-28T17:19:28.903Z,102195.28
2022-08-28T17:21:55.847Z,102134.06
2022-08-28T17:24:22.630Z,102264.88
2022-08-28T17:26:49.403Z,102234.53
2022-08-28T17:29:16.253Z,102209.25
2022-08-28T17:31:46.483Z,102267.63
2022-08-28T17:34:13.449Z,102163.06
2022-08-28T17:36:41.687Z,102256.66
2022-08-28T17:39:11.292Z,102246.66
2022-08-28T17:41:39.671Z,102267.72
2022-08-28T17:44:07.123Z,102180.06
2022-08-28T17:46:37.959Z,102160.72
2022-08-28T17:49:08.224Z,102076.28
2022-08-28T17:51:42.976Z,102264.75
2022-08-28T17:54:11.473Z,102247.53
2022-08-28T17:56:38.217Z,102140.25
2022-08-28T17:59:04.971Z,102157.06
2022-08-28T18:01:31.854Z,102212.38
2022-08-28T18:04:01.760Z,102263.00
2022-08-28T18:06:29.990Z,102205.38
2022-08-28T18:09:00.218Z,102180.59
2022-08-28T18:11:27.403Z,102137.06
2022-08-28T18:13:56.229Z,102145.03
2022-08-28T18:16:26.558Z,102130.69
2022-08-28T18:19:05.201Z,102203.91
2022-08-28T18:21:36.745Z,102241.19
2022-08-28T18:24:04.818Z,102202.38
2022-08-28T18:26:35.345Z,102252.78
2022-08-28T18:29:02.440Z,102180.91
2022-08-28T18:31:32.138Z,102286.06
2022-08-28T18:34:02.165Z,102257.25
2022-08-28T18:36:34.568Z,102189.25
2022-08-28T18:39:03.574Z,102211.66
2022-08-28T18:41:43.735Z,102292.63
2022-08-28T18:44:14.771Z,102295.13
2022-08-28T18:46:49.410Z,102300.88
2022-08-28T18:49:17.127Z,102289.41
2022-08-28T18:51:47.839Z,102284.22
2022-08-28T18:54:22.056Z,102305.03
2022-08-28T18:56:50.482Z,102267.16
2022-08-28T18:59:18.075Z,102229.56
2022-08-28T19:01:52.113Z,102283.28
2022-08-28T19:04:40.468Z,102222.22
2022-08-28T19:07:11.385Z,102253.78
2022-08-28T19:09:46.047Z,102172.88
2022-08-28T19:12:16.851Z,102208.00
2022-08-28T19:14:52.166Z,102175.09
2022-08-28T19:17:21.064Z,102273.44
2022-08-28T19:19:48.880Z,102240.41
2022-08-28T19:22:24.886Z,102234.63
2022-08-28T19:24:57.347Z,102308.25
2022-08-28T19:27:27.162Z,102200.69
2022-08-28T19:30:01.899Z,102218.03
2022-08-28T19:32:29.151Z,102142.13
2022-08-28T19:34:56.221Z,102206.38
2022-08-28T19:37:29.183Z,102308.28
2022-08-28T19:40:09.351Z,102319.25
2022-08-28T19:42:50.550Z,102193.31
2022-08-28T19:45:29.837Z,102216.47
2022-08-28T19:48:01.112Z,102311.28
2022-08-28T19:50:30.524Z,102327.47
2022-08-28T19:53:04.805Z,102201.53
2022-08-28T19:55:35.032Z,102290.38
2022-08-28T19:58:07.118Z,102213.03
2022-08-28T20:00:36.981Z,102289.00
2022-08-28T20:03:04.405Z,102316.00
2022-08-28T20:05:33.004Z,102244.31
2022-08-28T20:08:05.690Z,102307.84
2022-08-28T20:13:14.117Z,102228.84
2022-08-28T20:15:42.382Z,102238.06
2022-08-28T20:18:12.389Z,102221.19
2022-08-28T20:20:39.688Z,102250.06
2022-08-28T20:23:11.958Z,102294.53
2022-08-28T20:25:50.204Z,102239.16
2022-08-28T20:28:23.076Z,102194.53
2022-08-28T20:30:57.266Z,102240.78
2022-08-28T20:33:26.400Z,102282.25
2022-08-28T20:36:01.115Z,102227.81
2022-08-28T20:38:29.601Z,102206.06
2022-08-28T20:41:03.427Z,102323.50
2022-08-28T20:43:30.484Z,102289.69
2022-08-28T20:45:59.986Z,102237.34
2022-08-28T20:48:28.069Z,102321.31
2022-08-28T20:50:55.868Z,102205.50
2022-08-28T20:53:37.377Z,102155.34
2022-08-28T20:56:07.009Z,102296.56
2022-08-28T20:58:48.618Z,102321.31
2022-08-28T21:01:16.428Z,102317.28
2022-08-28T21:03:43.404Z,102318.94
2022-08-28T21:06:12.067Z,102321.44
2022-08-28T21:08:51.172Z,102351.56
2022-08-28T21:11:24.095Z,102157.91
2022-08-28T21:14:01.267Z,102268.00
2022-08-28T21:16:36.452Z,102324.41
2022-08-28T21:19:15.890Z,102266.34
2022-08-28T21:22:08.278Z,102167.22
2022-08-28T21:24:46.720Z,102204.53
2022-08-28T21:27:20.715Z,102202.38
2022-08-28T21:29:49.006Z,102154.34
2022-08-28T21:32:16.126Z,102242.75
2022-08-28T21:34:43.217Z,102154.97
2022-08-28T21:37:13.104Z,102325.03
2022-08-28T21:39:48.102Z,102245.97
2022-08-28T21:42:34.303Z,102215.75
2022-08-28T21:47:45.871Z,102318.19
2022-08-28T21:50:16.309Z,102225.78
2022-08-28T21:52:47.726Z,102165.31
2022-08-28T21:55:24.604Z,102327.78
2022-08-28T21:57:53.759Z,102326.16
2022-08-28T22:00:26.654Z,102263.44
2022-08-28T22:02:53.686Z,102326.63
2022-08-28T22:05:25.099Z,102174.56
2022-08-28T22:07:53.057Z,102333.81
2022-08-28T22:10:29.255Z,102296.22
2022-08-28T22:13:00.996Z,102352.94
2022-08-28T22:15:37.844Z,102261.00
2022-08-28T22:18:07.852Z,102310.66
2022-08-28T22:20:39.011Z,102350.22
2022-08-28T22:23:06.015Z,102238.97
2022-08-28T22:25:35.955Z,102303.88
2022-08-28T22:28:14.545Z,102275.50
2022-08-28T22:30:43.897Z,102346.97
2022-08-28T22:33:12.928Z,102354.38
2022-08-28T22:35:43.445Z,102348.09
2022-08-28T22:38:13.130Z,102296.28
2022-08-28T22:40:44.353Z,102336.03
2022-08-28T22:43:16.986Z,102209.53
2022-08-28T22:45:49.915Z,102228.34
2022-08-28T22:48:18.050Z,102297.88
2022-08-28T22:50:47.350Z,102249.06
2022-08-28T22:53:17.590Z,102324.03
2022-08-28T22:55:45.955Z,102248.22
2022-08-28T22:58:21.750Z,102323.47
2022-08-28T23:00:48.754Z,102325.41
2022-08-28T23:03:19.957Z,102175.19
2022-08-28T23:05:49.553Z,102195.91
2022-08-28T23:08:16.464Z,102292.91
2022-08-28T23:11:02.279Z,102247.66
2022-08-28T23:13:30.385Z,102225.03
2022-08-28T23:15:57.381Z,102295.13
2022-08-28T23:18:27.756Z,102147.91
2022-08-28T23:20:57.034Z,102239.50
2022-08-28T23:23:25.025Z,102199.19
2022-08-28T23:25:55.583Z,102300.63
2022-08-28T23:28:24.981Z,102336.38
2022-08-28T23:30:53.735Z,102307.41
2022-08-28T23:33:29.789Z,102230.81
2022-08-28T23:35:58.589Z,102251.22
2022-08-28T23:38:32.938Z,102291.88
2022-08-28T23:41:06.335Z,102144.38
2022-08-28T23:46:26.236Z,102310.66
2022-08-28T23:49:05.009Z,102165.38
2022-08-28T23:51:32.143Z,102183.59
2022-08-28T23:54:00.896Z,102295.66
2022-08-28T23:56:37.192Z,102320.78
2022-08-28T23:59:12.051Z,102235.44
